sensor_id;sensor_type;location;lat;lon;timestamp;pressure;altitude;pressure_sealevel;temperature;humidity
64616;BME280;51027;42.162;24.754;2023-07-28T03:31:12;99680.50;;;17.99;56.08
64616;BME280;51027;42.162;24.754;2023-07-28T03:33:37;99695.41;;;18.02;56.20
64616;BME280;51027;42.162;24.754;2023-07-28T03:36:03;99705.31;;;18.00;56.63
64616;BME280;51027;42.162;24.754;2023-07-28T03:38:28;99696.91;;;17.93;56.47
64616;BME280;51027;42.162;24.754;2023-07-28T03:40:53;99718.41;;;18.16;56.60
64616;BME280;51027;42.162;24.754;2023-07-28T03:43:20;99722.56;;;18.07;56.58
64616;BME280;51027;42.162;24.754;2023-07-28T03:45:47;99711.28;;;18.03;56.84
64616;BME280;51027;42.162;24.754;2023-07-28T03:48:18;99737.00;;;18.30;56.41
64616;BME280;51027;42.162;24.754;2023-07-28T03:50:49;99737.00;;;18.30;56.88
64616;BME280;51027;42.162;24.754;2023-07-28T03:53:19;99737.00;;;18.30;56.67
64616;BME280;51027;42.162;24.754;2023-07-28T03:55:47;99741.91;;;18.10;56.93
64616;BME280;51027;42.162;24.754;2023-07-28T03:58:17;99735.25;;;18.16;57.15
64616;BME280;51027;42.162;24.754;2023-07-28T04:00:47;99747.84;;;18.27;56.97
64616;BME280;51027;42.162;24.754;2023-07-28T04:03:15;99754.56;;;18.32;57.21
64616;BME280;51027;42.162;24.754;2023-07-28T04:05:43;99749.44;;;17.91;58.27
64616;BME280;51027;42.162;24.754;2023-07-28T04:08:11;99738.91;;;18.15;58.31
64616;BME280;51027;42.162;24.754;2023-07-28T04:10:36;99740.59;;;18.16;58.33
64616;BME280;51027;42.162;24.754;2023-07-28T04:13:02;99748.28;;;18.08;58.96
64616;BME280;51027;42.162;24.754;2023-07-28T04:15:27;99744.13;;;17.91;58.97
64616;BME280;51027;42.162;24.754;2023-07-28T04:17:53;99691.84;;;17.63;59.10
64616;BME280;51027;42.162;24.754;2023-07-28T04:20:18;99716.06;;;17.85;59.19
64616;BME280;51027;42.162;24.754;2023-07-28T04:22:44;99721.22;;;18.01;58.76
64616;BME280;51027;42.162;24.754;2023-07-28T04:25:09;99737.75;;;18.19;59.03
64616;BME280;51027;42.162;24.754;2023-07-28T04:27:35;99729.09;;;18.03;59.12
64616;BME280;51027;42.162;24.754;2023-07-28T04:30:00;99752.88;;;18.19;59.42
64616;BME280;51027;42.162;24.754;2023-07-28T04:32:26;99742.09;;;18.20;59.30
64616;BME280;51027;42.162;24.754;2023-07-28T04:34:51;99756.78;;;18.38;59.05
64616;BME280;51027;42.162;24.754;2023-07-28T04:37:19;99739.00;;;18.13;58.51
64616;BME280;51027;42.162;24.754;2023-07-28T04:39:45;99759.78;;;18.34;57.45
64616;BME280;51027;42.162;24.754;2023-07-28T04:42:11;99745.81;;;18.43;57.67
64616;BME280;51027;42.162;24.754;2023-07-28T04:44:37;99716.72;;;18.40;57.65
64616;BME280;51027;42.162;24.754;2023-07-28T04:47:05;99720.31;;;18.39;57.01
64616;BME280;51027;42.162;24.754;2023-07-28T04:49:31;99739.84;;;18.65;57.36
64616;BME280;51027;42.162;24.754;2023-07-28T04:52:00;99737.56;;;18.84;56.88
64616;BME280;51027;42.162;24.754;2023-07-28T04:54:26;99730.94;;;18.77;56.70
64616;BME280;51027;42.162;24.754;2023-07-28T04:56:51;99755.00;;;19.01;56.50
64616;BME280;51027;42.162;24.754;2023-07-28T04:59:18;99744.81;;;18.82;56.00
64616;BME280;51027;42.162;24.754;2023-07-28T05:01:44;99762.72;;;19.17;56.46
64616;BME280;51027;42.162;24.754;2023-07-28T05:04:09;99764.16;;;19.34;55.71
64616;BME280;51027;42.162;24.754;2023-07-28T05:06:35;99768.00;;;19.29;55.55
64616;BME280;51027;42.162;24.754;2023-07-28T05:09:00;99765.31;;;19.42;54.91
64616;BME280;51027;42.162;24.754;2023-07-28T05:11:25;99759.81;;;19.33;55.03
64616;BME280;51027;42.162;24.754;2023-07-28T05:13:51;99751.66;;;19.34;55.19
64616;BME280;51027;42.162;24.754;2023-07-28T05:16:16;99769.44;;;19.70;54.81
64616;BME280;51027;42.162;24.754;2023-07-28T05:18:47;99761.56;;;19.45;54.01
64616;BME280;51027;42.162;24.754;2023-07-28T05:21:13;99755.31;;;19.57;54.26
64616;BME280;51027;42.162;24.754;2023-07-28T05:23:38;99765.47;;;19.76;53.45
64616;BME280;51027;42.162;24.754;2023-07-28T05:26:04;99779.84;;;19.86;53.70
64616;BME280;51027;42.162;24.754;2023-07-28T05:28:31;99766.94;;;19.91;53.15
64616;BME280;51027;42.162;24.754;2023-07-28T05:31:03;99787.63;;;20.00;51.79
64616;BME280;51027;42.162;24.754;2023-07-28T05:33:29;99780.50;;;20.12;51.79
64616;BME280;51027;42.162;24.754;2023-07-28T05:36:04;99768.34;;;20.19;51.79
64616;BME280;51027;42.162;24.754;2023-07-28T05:38:30;99781.25;;;20.14;50.76
64616;BME280;51027;42.162;24.754;2023-07-28T05:40:57;99770.56;;;20.36;50.99
64616;BME280;51027;42.162;24.754;2023-07-28T05:43:25;99772.69;;;20.55;50.51
64616;BME280;51027;42.162;24.754;2023-07-28T05:45:51;99777.19;;;20.55;49.78
64616;BME280;51027;42.162;24.754;2023-07-28T05:48:17;99781.91;;;20.51;49.16
64616;BME280;51027;42.162;24.754;2023-07-28T05:50:42;99758.09;;;20.59;49.91
64616;BME280;51027;42.162;24.754;2023-07-28T05:53:07;99777.78;;;20.81;49.15
64616;BME280;51027;42.162;24.754;2023-07-28T05:55:33;99778.84;;;21.00;48.63
64616;BME280;51027;42.162;24.754;2023-07-28T05:57:58;99774.28;;;21.23;49.46
64616;BME280;51027;42.162;24.754;2023-07-28T06:00:24;99764.22;;;21.27;48.33
64616;BME280;51027;42.162;24.754;2023-07-28T06:02:49;99760.69;;;21.26;47.94
64616;BME280;51027;42.162;24.754;2023-07-28T06:05:14;99771.66;;;21.55;48.21
64616;BME280;51027;42.162;24.754;2023-07-28T06:07:40;99771.19;;;21.07;48.20
64616;BME280;51027;42.162;24.754;2023-07-28T06:10:06;99779.09;;;21.52;46.67
64616;BME280;51027;42.162;24.754;2023-07-28T06:12:32;99778.09;;;21.85;49.62
64616;BME280;51027;42.162;24.754;2023-07-28T06:14:58;99786.28;;;22.04;46.38
64616;BME280;51027;42.162;24.754;2023-07-28T06:17:23;99778.59;;;22.11;45.97
64616;BME280;51027;42.162;24.754;2023-07-28T06:19:49;99772.66;;;21.96;46.39
64616;BME280;51027;42.162;24.754;2023-07-28T06:22:14;99791.22;;;21.99;47.17
64616;BME280;51027;42.162;24.754;2023-07-28T06:24:40;99777.53;;;22.02;46.38
64616;BME280;51027;42.162;24.754;2023-07-28T06:27:07;99785.97;;;21.98;46.55
64616;BME280;51027;42.162;24.754;2023-07-28T06:29:34;99785.09;;;22.08;46.67
64616;BME280;51027;42.162;24.754;2023-07-28T06:32:00;99766.75;;;22.13;46.76
64616;BME280;51027;42.162;24.754;2023-07-28T06:34:26;99759.13;;;22.09;46.29
64616;BME280;51027;42.162;24.754;2023-07-28T06:36:51;99778.59;;;22.11;45.90
64616;BME280;51027;42.162;24.754;2023-07-28T06:39:17;99747.88;;;22.04;46.13
64616;BME280;51027;42.162;24.754;2023-07-28T06:41:43;99757.13;;;21.90;45.60
64616;BME280;51027;42.162;24.754;2023-07-28T06:44:08;99762.63;;;22.30;45.66
64616;BME280;51027;42.162;24.754;2023-07-28T06:46:34;99740.50;;;22.38;46.04
64616;BME280;51027;42.162;24.754;2023-07-28T06:48:59;99737.38;;;22.73;45.98
64616;BME280;51027;42.162;24.754;2023-07-28T06:51:25;99751.22;;;22.68;45.44
64616;BME280;51027;42.162;24.754;2023-07-28T06:53:54;99755.31;;;22.73;44.24
64616;BME280;51027;42.162;24.754;2023-07-28T06:56:28;99752.03;;;22.90;43.77
64616;BME280;51027;42.162;24.754;2023-07-28T06:58:53;99746.69;;;22.69;42.93
64616;BME280;51027;42.162;24.754;2023-07-28T07:01:18;99740.84;;;22.85;42.81
64616;BME280;51027;42.162;24.754;2023-07-28T07:03:44;99740.94;;;22.83;42.53
64616;BME280;51027;42.162;24.754;2023-07-28T07:06:13;99745.97;;;23.07;43.07
64616;BME280;51027;42.162;24.754;2023-07-28T07:08:43;99752.94;;;23.29;41.31
64616;BME280;51027;42.162;24.754;2023-07-28T07:11:18;99745.03;;;23.37;41.54
64616;BME280;51027;42.162;24.754;2023-07-28T07:13:44;99741.09;;;23.51;41.59
64616;BME280;51027;42.162;24.754;2023-07-28T07:16:16;99732.75;;;23.64;40.80
64616;BME280;51027;42.162;24.754;2023-07-28T07:18:44;99737.28;;;23.73;41.20
64616;BME280;51027;42.162;24.754;2023-07-28T07:21:10;99725.34;;;23.56;40.27
64616;BME280;51027;42.162;24.754;2023-07-28T07:23:36;99746.88;;;23.95;39.93
64616;BME280;51027;42.162;24.754;2023-07-28T07:26:02;99734.84;;;23.70;39.61
64616;BME280;51027;42.162;24.754;2023-07-28T07:28:28;99736.97;;;23.95;40.47
64616;BME280;51027;42.162;24.754;2023-07-28T07:30:56;99748.84;;;24.02;39.28
64616;BME280;51027;42.162;24.754;2023-07-28T07:33:21;99739.63;;;24.05;39.54
64616;BME280;51027;42.162;24.754;2023-07-28T07:35:47;99740.59;;;24.33;38.51
64616;BME280;51027;42.162;24.754;2023-07-28T07:38:12;99750.03;;;24.47;38.18
64616;BME280;51027;42.162;24.754;2023-07-28T07:40:38;99736.19;;;24.22;38.70
64616;BME280;51027;42.162;24.754;2023-07-28T07:43:04;99743.91;;;24.54;38.48
64616;BME280;51027;42.162;24.754;2023-07-28T07:45:30;99703.00;;;24.41;38.81
64616;BME280;51027;42.162;24.754;2023-07-28T07:47:55;99727.88;;;24.80;37.81
64616;BME280;51027;42.162;24.754;2023-07-28T07:50:21;99737.22;;;24.86;37.64
64616;BME280;51027;42.162;24.754;2023-07-28T07:52:47;99724.59;;;24.59;37.51
64616;BME280;51027;42.162;24.754;2023-07-28T07:55:12;99724.19;;;24.81;37.68
64616;BME280;51027;42.162;24.754;2023-07-28T07:57:43;99707.75;;;24.84;36.50
64616;BME280;51027;42.162;24.754;2023-07-28T08:00:15;99735.88;;;24.99;36.50
64616;BME280;51027;42.162;24.754;2023-07-28T08:02:41;99722.91;;;24.85;36.83
64616;BME280;51027;42.162;24.754;2023-07-28T08:05:07;99719.81;;;24.80;36.17
64616;BME280;51027;42.162;24.754;2023-07-28T08:07:33;99711.59;;;24.99;36.59
64616;BME280;51027;42.162;24.754;2023-07-28T08:09:59;99720.00;;;25.24;35.79
64616;BME280;51027;42.162;24.754;2023-07-28T08:12:25;99728.91;;;25.60;35.67
64616;BME280;51027;42.162;24.754;2023-07-28T08:14:50;99713.75;;;25.59;35.06
64616;BME280;51027;42.162;24.754;2023-07-28T08:17:16;99708.88;;;25.80;35.07
64616;BME280;51027;42.162;24.754;2023-07-28T08:19:41;99707.22;;;26.05;34.68
64616;BME280;51027;42.162;24.754;2023-07-28T08:22:07;99707.56;;;26.10;34.08
64616;BME280;51027;42.162;24.754;2023-07-28T08:24:32;99696.13;;;25.91;34.20
64616;BME280;51027;42.162;24.754;2023-07-28T08:26:58;99715.13;;;25.81;34.35
64616;BME280;51027;42.162;24.754;2023-07-28T08:29:24;99697.16;;;25.90;34.90
64616;BME280;51027;42.162;24.754;2023-07-28T08:31:50;99690.75;;;26.17;34.20
64616;BME280;51027;42.162;24.754;2023-07-28T08:34:16;99702.75;;;26.48;33.53
64616;BME280;51027;42.162;24.754;2023-07-28T08:36:43;99689.41;;;26.47;33.86
64616;BME280;51027;42.162;24.754;2023-07-28T08:39:08;99703.06;;;26.19;32.97
64616;BME280;51027;42.162;24.754;2023-07-28T08:41:35;99685.25;;;26.34;33.43
64616;BME280;51027;42.162;24.754;2023-07-28T08:44:00;99697.09;;;26.76;33.64
64616;BME280;51027;42.162;24.754;2023-07-28T08:46:26;99683.91;;;26.64;32.41
64616;BME280;51027;42.162;24.754;2023-07-28T08:48:54;99670.41;;;26.73;32.44
64616;BME280;51027;42.162;24.754;2023-07-28T08:51:23;99658.03;;;26.54;31.01
64616;BME280;51027;42.162;24.754;2023-07-28T08:53:49;99648.25;;;26.61;31.39
64616;BME280;51027;42.162;24.754;2023-07-28T08:56:14;99675.19;;;26.95;30.98
64616;BME280;51027;42.162;24.754;2023-07-28T08:58:40;99672.91;;;27.16;31.38
64616;BME280;51027;42.162;24.754;2023-07-28T09:01:05;99665.22;;;26.79;29.92
64616;BME280;51027;42.162;24.754;2023-07-28T09:03:34;99630.91;;;26.72;30.24
64616;BME280;51027;42.162;24.754;2023-07-28T09:06:03;99651.72;;;26.95;30.00
64616;BME280;51027;42.162;24.754;2023-07-28T09:08:32;99666.31;;;27.03;30.10
64616;BME280;51027;42.162;24.754;2023-07-28T09:11:02;99668.19;;;27.18;30.45
64616;BME280;51027;42.162;24.754;2023-07-28T09:13:35;99669.91;;;27.44;30.46
64616;BME280;51027;42.162;24.754;2023-07-28T09:16:01;99663.97;;;27.65;30.06
64616;BME280;51027;42.162;24.754;2023-07-28T09:18:27;99664.97;;;27.55;29.11
64616;BME280;51027;42.162;24.754;2023-07-28T09:20:55;99669.91;;;27.52;28.95
64616;BME280;51027;42.162;24.754;2023-07-28T09:23:28;99663.47;;;27.77;29.54
64616;BME280;51027;42.162;24.754;2023-07-28T09:26:01;99652.78;;;28.00;29.08
64616;BME280;51027;42.162;24.754;2023-07-28T09:28:40;99649.56;;;27.89;28.56
64616;BME280;51027;42.162;24.754;2023-07-28T09:31:07;99653.44;;;28.10;28.84
64616;BME280;51027;42.162;24.754;2023-07-28T09:33:34;99647.97;;;28.19;28.51
64616;BME280;51027;42.162;24.754;2023-07-28T09:36:14;99632.25;;;28.30;29.27
64616;BME280;51027;42.162;24.754;2023-07-28T09:38:43;99632.56;;;28.19;29.58
64616;BME280;51027;42.162;24.754;2023-07-28T09:41:10;99634.19;;;28.53;29.46
64616;BME280;51027;42.162;24.754;2023-07-28T09:43:37;99607.25;;;27.96;28.73
64616;BME280;51027;42.162;24.754;2023-07-28T09:46:04;99630.41;;;28.15;27.30
64616;BME280;51027;42.162;24.754;2023-07-28T09:48:32;99632.06;;;28.24;28.49
64616;BME280;51027;42.162;24.754;2023-07-28T09:51:03;99610.88;;;28.27;28.27
64616;BME280;51027;42.162;24.754;2023-07-28T09:53:33;99623.84;;;28.01;28.90
64616;BME280;51027;42.162;24.754;2023-07-28T09:56:01;99618.06;;;28.04;28.51
64616;BME280;51027;42.162;24.754;2023-07-28T09:58:31;99612.91;;;28.25;27.75
64616;BME280;51027;42.162;24.754;2023-07-28T10:01:00;99605.81;;;28.32;27.47
64616;BME280;51027;42.162;24.754;2023-07-28T10:03:26;99595.81;;;28.64;27.56
64616;BME280;51027;42.162;24.754;2023-07-28T10:05:52;99576.50;;;28.36;26.60
64616;BME280;51027;42.162;24.754;2023-07-28T10:08:18;99602.31;;;28.55;26.10
64616;BME280;51027;42.162;24.754;2023-07-28T10:10:45;99592.78;;;28.59;26.11
64616;BME280;51027;42.162;24.754;2023-07-28T10:13:19;99584.63;;;28.67;26.59
64616;BME280;51027;42.162;24.754;2023-07-28T10:15:46;99575.81;;;28.96;26.44
64616;BME280;51027;42.162;24.754;2023-07-28T10:18:13;99589.25;;;28.81;26.04
64616;BME280;51027;42.162;24.754;2023-07-28T10:20:42;99586.34;;;28.60;26.96
64616;BME280;51027;42.162;24.754;2023-07-28T10:23:20;99593.34;;;29.08;26.88
64616;BME280;51027;42.162;24.754;2023-07-28T10:25:46;99572.41;;;29.17;25.95
64616;BME280;51027;42.162;24.754;2023-07-28T10:28:26;99570.44;;;29.11;25.49
64616;BME280;51027;42.162;24.754;2023-07-28T10:30:54;99558.59;;;29.26;25.25
64616;BME280;51027;42.162;24.754;2023-07-28T10:35:54;99559.78;;;28.55;26.79
64616;BME280;51027;42.162;24.754;2023-07-28T10:38:30;99553.47;;;28.94;26.05
64616;BME280;51027;42.162;24.754;2023-07-28T10:41:26;99516.38;;;29.09;26.39
64616;BME280;51027;42.162;24.754;2023-07-28T10:43:51;99558.88;;;29.54;26.33
64616;BME280;51027;42.162;24.754;2023-07-28T10:46:20;99550.81;;;29.61;25.52
64616;BME280;51027;42.162;24.754;2023-07-28T10:48:46;99541.19;;;29.73;25.68
64616;BME280;51027;42.162;24.754;2023-07-28T10:51:24;99547.28;;;29.75;25.56
64616;BME280;51027;42.162;24.754;2023-07-28T10:53:51;99535.75;;;29.88;26.50
64616;BME280;51027;42.162;24.754;2023-07-28T10:56:17;99513.38;;;29.86;25.34
64616;BME280;51027;42.162;24.754;2023-07-28T10:58:44;99526.09;;;30.00;25.16
64616;BME280;51027;42.162;24.754;2023-07-28T11:01:10;99527.81;;;30.16;25.13
64616;BME280;51027;42.162;24.754;2023-07-28T11:03:36;99514.22;;;29.87;24.52
64616;BME280;51027;42.162;24.754;2023-07-28T11:06:03;99504.66;;;29.46;24.32
64616;BME280;51027;42.162;24.754;2023-07-28T11:08:28;99522.63;;;29.92;25.10
64616;BME280;51027;42.162;24.754;2023-07-28T11:10:54;99501.84;;;29.99;25.61
64616;BME280;51027;42.162;24.754;2023-07-28T11:13:19;99502.03;;;29.97;24.86
64616;BME280;51027;42.162;24.754;2023-07-28T11:15:45;99512.13;;;30.03;24.97
64616;BME280;51027;42.162;24.754;2023-07-28T11:18:19;99506.81;;;29.95;24.76
64616;BME280;51027;42.162;24.754;2023-07-28T11:20:46;99496.41;;;30.14;25.27
64616;BME280;51027;42.162;24.754;2023-07-28T11:23:13;99508.94;;;30.29;24.74
64616;BME280;51027;42.162;24.754;2023-07-28T11:25:39;99519.28;;;30.40;24.33
64616;BME280;51027;42.162;24.754;2023-07-28T11:28:04;99503.97;;;30.54;24.79
64616;BME280;51027;42.162;24.754;2023-07-28T11:30:35;99506.34;;;30.43;24.58
64616;BME280;51027;42.162;24.754;2023-07-28T11:33:11;99494.06;;;30.47;24.81
64616;BME280;51027;42.162;24.754;2023-07-28T11:35:46;99483.22;;;30.89;24.90
64616;BME280;51027;42.162;24.754;2023-07-28T11:38:15;99498.09;;;30.93;24.32
64616;BME280;51027;42.162;24.754;2023-07-28T11:40:45;99482.03;;;30.56;24.72
64616;BME280;51027;42.162;24.754;2023-07-28T11:43:11;99470.91;;;30.51;24.44
64616;BME280;51027;42.162;24.754;2023-07-28T11:45:36;99465.75;;;30.77;24.00
64616;BME280;51027;42.162;24.754;2023-07-28T11:48:06;99485.66;;;30.84;24.00
64616;BME280;51027;42.162;24.754;2023-07-28T11:50:39;99476.81;;;30.76;23.45
64616;BME280;51027;42.162;24.754;2023-07-28T11:53:06;99475.06;;;30.89;23.66
64616;BME280;51027;42.162;24.754;2023-07-28T11:55:33;99469.31;;;30.78;23.61
64616;BME280;51027;42.162;24.754;2023-07-28T11:58:00;99452.44;;;30.89;23.58
64616;BME280;51027;42.162;24.754;2023-07-28T12:00:37;99441.59;;;30.95;24.31
64616;BME280;51027;42.162;24.754;2023-07-28T12:03:12;99468.72;;;31.10;23.81
64616;BME280;51027;42.162;24.754;2023-07-28T12:05:39;99438.97;;;31.30;23.89
64616;BME280;51027;42.162;24.754;2023-07-28T12:08:05;99449.16;;;31.21;23.44
64616;BME280;51027;42.162;24.754;2023-07-28T12:10:33;99423.66;;;31.01;23.56
64616;BME280;51027;42.162;24.754;2023-07-28T12:13:08;99435.47;;;31.15;23.25
64616;BME280;51027;42.162;24.754;2023-07-28T12:15:34;99435.47;;;31.15;22.95
64616;BME280;51027;42.162;24.754;2023-07-28T12:23:04;99423.53;;;31.44;22.74
64616;BME280;51027;42.162;24.754;2023-07-28T12:25:30;99414.81;;;31.20;22.69
64616;BME280;51027;42.162;24.754;2023-07-28T12:27:56;99418.97;;;30.88;23.02
64616;BME280;51027;42.162;24.754;2023-07-28T12:30:21;99412.38;;;31.04;22.85
64616;BME280;51027;42.162;24.754;2023-07-28T12:32:47;99416.31;;;31.23;23.10
64616;BME280;51027;42.162;24.754;2023-07-28T12:35:13;99405.66;;;31.28;22.82
64616;BME280;51027;42.162;24.754;2023-07-28T12:37:39;99378.72;;;31.12;22.90
64616;BME280;51027;42.162;24.754;2023-07-28T12:43:02;99389.91;;;31.58;22.99
64616;BME280;51027;42.162;24.754;2023-07-28T12:45:28;99402.22;;;32.02;23.20
64616;BME280;51027;42.162;24.754;2023-07-28T12:47:55;99392.16;;;31.89;23.53
64616;BME280;51027;42.162;24.754;2023-07-28T12:50:21;99399.47;;;31.95;22.88
64616;BME280;51027;42.162;24.754;2023-07-28T12:52:48;99378.47;;;31.76;22.84
64616;BME280;51027;42.162;24.754;2023-07-28T12:55:14;99404.97;;;32.02;22.78
64616;BME280;51027;42.162;24.754;2023-07-28T12:57:40;99394.03;;;31.95;22.67
64616;BME280;51027;42.162;24.754;2023-07-28T13:00:06;99382.47;;;31.87;22.77
64616;BME280;51027;42.162;24.754;2023-07-28T13:02:40;99383.31;;;31.80;22.61
64616;BME280;51027;42.162;24.754;2023-07-28T13:05:07;99370.16;;;32.04;22.49
64616;BME280;51027;42.162;24.754;2023-07-28T13:07:33;99394.09;;;32.22;22.24
64616;BME280;51027;42.162;24.754;2023-07-28T13:09:58;99358.66;;;32.15;22.54
64616;BME280;51027;42.162;24.754;2023-07-28T13:12:23;99375.06;;;32.42;22.19
64616;BME280;51027;42.162;24.754;2023-07-28T13:14:49;99380.53;;;32.42;22.34
64616;BME280;51027;42.162;24.754;2023-07-28T13:17:14;99361.56;;;32.07;22.05
64616;BME280;51027;42.162;24.754;2023-07-28T13:19:41;99363.47;;;32.13;22.02
64616;BME280;51027;42.162;24.754;2023-07-28T13:22:07;99353.63;;;32.12;21.91
64616;BME280;51027;42.162;24.754;2023-07-28T13:24:32;99373.16;;;32.35;21.76
64616;BME280;51027;42.162;24.754;2023-07-28T13:26:58;99355.34;;;32.46;21.97
64616;BME280;51027;42.162;24.754;2023-07-28T13:29:23;99366.06;;;32.41;21.63
64616;BME280;51027;42.162;24.754;2023-07-28T13:31:49;99355.06;;;32.08;22.04
64616;BME280;51027;42.162;24.754;2023-07-28T13:34:14;99343.97;;;32.03;22.06
64616;BME280;51027;42.162;24.754;2023-07-28T13:36:40;99349.66;;;32.21;22.39
64616;BME280;51027;42.162;24.754;2023-07-28T13:39:05;99367.72;;;32.42;21.65
64616;BME280;51027;42.162;24.754;2023-07-28T13:41:31;99338.97;;;32.20;22.15
64616;BME280;51027;42.162;24.754;2023-07-28T13:43:56;99343.59;;;32.46;22.19
64616;BME280;51027;42.162;24.754;2023-07-28T13:46:22;99344.22;;;32.34;22.39
64616;BME280;51027;42.162;24.754;2023-07-28T13:48:47;99340.44;;;32.29;22.04
64616;BME280;51027;42.162;24.754;2023-07-28T13:51:13;99330.16;;;32.24;22.25
64616;BME280;51027;42.162;24.754;2023-07-28T13:53:38;99319.50;;;32.29;22.31
64616;BME280;51027;42.162;24.754;2023-07-28T13:56:04;99330.41;;;32.43;21.85
64616;BME280;51027;42.162;24.754;2023-07-28T13:58:30;99334.81;;;32.50;22.51
64616;BME280;51027;42.162;24.754;2023-07-28T14:00:56;99336.69;;;32.43;21.91
64616;BME280;51027;42.162;24.754;2023-07-28T14:03:21;99321.53;;;32.27;22.27
64616;BME280;51027;42.162;24.754;2023-07-28T14:05:47;99312.78;;;32.32;22.09
64616;BME280;51027;42.162;24.754;2023-07-28T14:08:12;99317.59;;;32.50;22.05
64616;BME280;51027;42.162;24.754;2023-07-28T14:10:38;99326.41;;;32.38;22.67
64616;BME280;51027;42.162;24.754;2023-07-28T14:13:04;99324.72;;;32.64;22.26
64616;BME280;51027;42.162;24.754;2023-07-28T14:15:29;99316.50;;;32.18;21.81
64616;BME280;51027;42.162;24.754;2023-07-28T14:17:54;99310.69;;;32.34;22.38
64616;BME280;51027;42.162;24.754;2023-07-28T14:20:20;99316.13;;;32.47;22.42
64616;BME280;51027;42.162;24.754;2023-07-28T14:22:45;99315.91;;;32.62;21.89
64616;BME280;51027;42.162;24.754;2023-07-28T14:25:11;99314.63;;;32.64;22.61
64616;BME280;51027;42.162;24.754;2023-07-28T14:27:36;99308.59;;;32.49;22.35
64616;BME280;51027;42.162;24.754;2023-07-28T14:30:02;99292.41;;;32.61;22.26
64616;BME280;51027;42.162;24.754;2023-07-28T14:32:27;99290.56;;;32.42;22.58
64616;BME280;51027;42.162;24.754;2023-07-28T14:34:53;99302.91;;;32.44;22.46
64616;BME280;51027;42.162;24.754;2023-07-28T14:37:18;99287.41;;;32.31;22.43
64616;BME280;51027;42.162;24.754;2023-07-28T14:39:44;99293.69;;;32.38;22.75
64616;BME280;51027;42.162;24.754;2023-07-28T14:42:09;99291.38;;;32.22;22.96
64616;BME280;51027;42.162;24.754;2023-07-28T14:44:35;99289.88;;;32.00;22.52
64616;BME280;51027;42.162;24.754;2023-07-28T14:47:01;99290.31;;;32.03;23.30
64616;BME280;51027;42.162;24.754;2023-07-28T14:49:27;99273.97;;;32.10;23.31
64616;BME280;51027;42.162;24.754;2023-07-28T14:51:56;99294.69;;;32.18;22.91
64616;BME280;51027;42.162;24.754;2023-07-28T14:54:21;99288.63;;;32.22;23.04
64616;BME280;51027;42.162;24.754;2023-07-28T14:56:47;99263.69;;;32.05;23.16
64616;BME280;51027;42.162;24.754;2023-07-28T14:59:12;99281.72;;;32.26;23.72
64616;BME280;51027;42.162;24.754;2023-07-28T15:01:38;99281.69;;;32.06;23.17
64616;BME280;51027;42.162;24.754;2023-07-28T15:04:03;99269.97;;;31.93;23.05
64616;BME280;51027;42.162;24.754;2023-07-28T15:06:30;99261.09;;;31.71;22.97
64616;BME280;51027;42.162;24.754;2023-07-28T15:08:56;99264.91;;;31.76;23.39
64616;BME280;51027;42.162;24.754;2023-07-28T15:11:21;99266.19;;;31.80;23.49
64616;BME280;51027;42.162;24.754;2023-07-28T15:13:46;99276.88;;;31.89;23.06
64616;BME280;51027;42.162;24.754;2023-07-28T15:16:12;99284.22;;;31.88;23.41
64616;BME280;51027;42.162;24.754;2023-07-28T15:18:38;99273.09;;;31.83;22.80
64616;BME280;51027;42.162;24.754;2023-07-28T15:21:04;99268.06;;;31.87;23.78
64616;BME280;51027;42.162;24.754;2023-07-28T15:23:29;99254.25;;;31.88;24.08
64616;BME280;51027;42.162;24.754;2023-07-28T15:25:56;99268.31;;;31.98;23.55
64616;BME280;51027;42.162;24.754;2023-07-28T15:28:23;99252.34;;;31.82;23.25
64616;BME280;51027;42.162;24.754;2023-07-28T15:30:49;99256.06;;;31.74;23.23
64616;BME280;51027;42.162;24.754;2023-07-28T15:33:20;99273.25;;;31.62;23.51
64616;BME280;51027;42.162;24.754;2023-07-28T15:35:45;99275.97;;;31.62;23.68
64616;BME280;51027;42.162;24.754;2023-07-28T15:38:11;99251.00;;;31.51;23.72
64616;BME280;51027;42.162;24.754;2023-07-28T15:40:37;99252.03;;;31.44;23.39
64616;BME280;51027;42.162;24.754;2023-07-28T15:43:02;99267.75;;;31.42;23.67
64616;BME280;51027;42.162;24.754;2023-07-28T15:45:28;99270.50;;;31.48;23.66
64616;BME280;51027;42.162;24.754;2023-07-28T15:47:53;99268.16;;;31.39;23.68
64616;BME280;51027;42.162;24.754;2023-07-28T15:50:19;99254.50;;;31.25;24.11
64616;BME280;51027;42.162;24.754;2023-07-28T15:52:44;99259.91;;;31.19;23.84
64616;BME280;51027;42.162;24.754;2023-07-28T15:55:10;99270.22;;;31.30;24.16
64616;BME280;51027;42.162;24.754;2023-07-28T15:57:35;99268.91;;;31.19;23.78
64616;BME280;51027;42.162;24.754;2023-07-28T16:00:01;99254.00;;;31.15;24.18
64616;BME280;51027;42.162;24.754;2023-07-28T16:02:26;99267.47;;;31.23;24.12
64616;BME280;51027;42.162;24.754;2023-07-28T16:04:51;99274.63;;;31.31;24.47
64616;BME280;51027;42.162;24.754;2023-07-28T16:07:17;99251.47;;;31.14;24.42
64616;BME280;51027;42.162;24.754;2023-07-28T16:09:42;99261.81;;;31.25;24.50
64616;BME280;51027;42.162;24.754;2023-07-28T16:12:10;99274.25;;;31.00;24.79
64616;BME280;51027;42.162;24.754;2023-07-28T16:14:36;99261.84;;;30.90;24.74
64616;BME280;51027;42.162;24.754;2023-07-28T16:17:03;99262.31;;;31.01;24.88
64616;BME280;51027;42.162;24.754;2023-07-28T16:19:29;99262.53;;;30.99;25.14
64616;BME280;51027;42.162;24.754;2023-07-28T16:21:54;99278.22;;;31.04;25.27
64616;BME280;51027;42.162;24.754;2023-07-28T16:24:23;99267.72;;;30.94;25.12
64616;BME280;51027;42.162;24.754;2023-07-28T16:26:48;99245.22;;;30.72;25.06
64616;BME280;51027;42.162;24.754;2023-07-28T16:29:14;99268.44;;;30.75;24.73